Time;durP1;ratioP1;P1;durP2;ratioP2;P2;SDS_P1;SDS_P2;PMS_P1;PMS_P2;Temp;Humidity;BMP_temperature;BMP_pressure;BME280_temperature;BME280_humidity;BME280_pressure;Samples;Min_cycle;Max_cycle;Signal;HPM_P1;HPM_P2
2022/04/26 03:40:21;;;;;;;26.70;18.00;;;;;;;;;;5035304;28;20456;-52
2022/04/26 03:43:05;;;;;;;;;;;;;;;;;;;;;
2022/04/26 03:45:34;;;;;;;23.90;18.20;;;;;;;;;;5058496;28;20430;-54
2022/04/26 03:48:20;;;;;;;23.83;17.67;;;;;;;;;;5071694;28;20450;-53
2022/04/26 03:50:46;;;;;;;22.23;16.30;;;;;;;;;;5058370;28;20434;-53
2022/04/26 03:53:35;;;;;;;28.13;19.40;;;;;;;;;;5051517;28;20441;-51
2022/04/26 03:56:04;;;;;;;26.50;19.57;;;;;;;;;;5063308;28;20441;-53
2022/04/26 03:58:31;;;;;;;29.60;19.50;;;;;;;;;;5054679;28;20473;-51
2022/04/26 04:00:57;;;;;;;24.40;18.47;;;;;;;;;;5057082;28;20426;-51
2022/04/26 04:03:23;;;;;;;24.83;18.73;;;;;;;;;;5024844;28;20525;-52
2022/04/26 04:05:49;;;;;;;25.63;18.50;;;;;;;;;;5058514;28;20434;-51
2022/04/26 04:08:31;;;;;;;25.90;18.27;;;;;;;;;;5050945;28;20480;-52
2022/04/26 04:10:58;;;;;;;27.77;18.47;;;;;;;;;;5060777;28;20448;-51
2022/04/26 04:13:25;;;;;;;25.40;18.17;;;;;;;;;;5035714;28;20569;-52
2022/04/26 04:15:51;;;;;;;21.97;16.60;;;;;;;;;;5050853;28;20785;-53
2022/04/26 04:21:33;;;;;;;20.57;15.60;;;;;;;;;;5059159;28;20475;-52
2022/04/26 04:24:03;;;;;;;21.40;14.80;;;;;;;;;;5009166;28;20836;-53
2022/04/26 04:26:29;;;;;;;19.93;14.13;;;;;;;;;;5052983;28;20444;-53
2022/04/26 04:29:20;;;;;;;18.87;16.13;;;;;;;;;;5037596;28;21010;-53
2022/04/26 04:31:49;;;;;;;22.47;14.17;;;;;;;;;;5052897;28;20456;-51
2022/04/26 04:34:39;;;;;;;20.57;14.33;;;;;;;;;;5041088;28;20750;-54
2022/04/26 04:37:06;;;;;;;23.70;16.07;;;;;;;;;;5049246;28;20444;-52
2022/04/26 04:39:33;;;;;;;22.57;15.00;;;;;;;;;;5028896;28;20477;-52
2022/04/26 04:41:59;;;;;;;21.57;16.37;;;;;;;;;;5059188;28;20433;-52
2022/04/26 04:44:29;;;;;;;22.40;14.57;;;;;;;;;;5028757;28;20442;-52
2022/04/26 04:46:59;;;;;;;22.80;16.13;;;;;;;;;;5047389;28;20688;-51
2022/04/26 04:49:49;;;;;;;21.60;14.90;;;;;;;;;;5030318;28;20465;-52
2022/04/26 04:52:27;;;;;;;20.37;14.80;;;;;;;;;;5058303;28;20583;-54
2022/04/26 04:54:54;;;;;;;22.90;16.10;;;;;;;;;;5018649;28;20456;-54
2022/04/26 04:57:20;;;;;;;22.17;16.00;;;;;;;;;;5046953;28;20422;-51
2022/04/26 04:59:46;;;;;;;23.73;17.70;;;;;;;;;;5045315;28;20471;-52
2022/04/26 05:02:12;;;;;;;21.37;15.40;;;;;;;;;;5053259;28;20437;-51
2022/04/26 05:04:42;;;;;;;23.70;17.10;;;;;;;;;;5022098;28;20824;-52
2022/04/26 05:07:11;;;;;;;24.40;17.93;;;;;;;;;;5049493;28;20510;-53
2022/04/26 05:09:38;;;;;;;25.00;16.60;;;;;;;;;;5028359;28;20878;-52
2022/04/26 05:12:10;;;;;;;25.27;18.90;;;;;;;;;;5019452;28;21252;-53
2022/04/26 05:14:39;;;;;;;25.33;18.33;;;;;;;;;;5055403;28;20473;-52
2022/04/26 05:17:07;;;;;;;24.40;17.90;;;;;;;;;;5031837;28;20542;-53
2022/04/26 05:19:33;;;;;;;26.63;18.57;;;;;;;;;;5060547;28;20504;-55
2022/04/26 05:22:15;;;;;;;24.27;18.03;;;;;;;;;;5029378;28;20445;-52
2022/04/26 05:24:54;;;;;;;25.17;19.07;;;;;;;;;;5057274;28;20434;-53
2022/04/26 05:27:21;;;;;;;26.43;18.23;;;;;;;;;;4997696;28;24003;-54
2022/04/26 05:29:48;;;;;;;23.80;18.20;;;;;;;;;;5041352;28;20843;-54
2022/04/26 05:32:13;;;;;;;28.63;17.30;;;;;;;;;;5039677;28;20803;-54
2022/04/26 05:34:39;;;;;;;24.77;16.50;;;;;;;;;;5059802;28;20497;-53
2022/04/26 05:37:06;;;;;;;21.23;15.90;;;;;;;;;;5050581;28;20433;-54
2022/04/26 05:39:31;;;;;;;26.73;17.10;;;;;;;;;;5052289;28;20484;-54
2022/04/26 05:41:58;;;;;;;29.03;18.13;;;;;;;;;;5029335;28;21174;-53
2022/04/26 05:44:24;;;;;;;21.80;15.97;;;;;;;;;;5056075;28;20961;-53
2022/04/26 05:46:52;;;;;;;21.97;16.60;;;;;;;;;;5030400;28;20422;-53
2022/04/26 05:49:18;;;;;;;21.07;15.07;;;;;;;;;;5058382;28;20469;-53
2022/04/26 05:51:44;;;;;;;23.23;15.50;;;;;;;;;;5041137;28;20632;-53
2022/04/26 05:54:11;;;;;;;24.90;16.30;;;;;;;;;;5050438;28;20425;-51
2022/04/26 05:57:13;;;;;;;18.40;15.30;;;;;;;;;;5049599;28;20477;-53
2022/04/26 05:59:49;;;;;;;19.73;13.97;;;;;;;;;;5037503;28;20986;-53
2022/04/26 06:02:15;;;;;;;17.40;14.63;;;;;;;;;;4978218;28;20433;-52
2022/04/26 06:04:41;;;;;;;23.60;15.87;;;;;;;;;;5050290;28;20433;-53
2022/04/26 06:07:09;;;;;;;19.57;15.10;;;;;;;;;;5035088;28;20438;-54
2022/04/26 06:09:36;;;;;;;22.20;15.40;;;;;;;;;;5032383;28;20506;-51
2022/04/26 06:12:03;;;;;;;21.10;15.23;;;;;;;;;;5055218;28;20962;-52
2022/04/26 06:14:29;;;;;;;19.70;14.80;;;;;;;;;;5036215;28;20441;-51
2022/04/26 06:16:55;;;;;;;19.30;15.10;;;;;;;;;;5059141;28;20433;-51
2022/04/26 06:19:21;;;;;;;19.27;15.07;;;;;;;;;;5035154;28;20489;-53
2022/04/26 06:21:47;;;;;;;21.00;14.60;;;;;;;;;;5059168;28;20196;-51
2022/04/26 06:24:13;;;;;;;16.10;12.97;;;;;;;;;;5037370;28;21048;-52
2022/04/26 06:26:39;;;;;;;16.47;13.50;;;;;;;;;;5045492;28;20433;-52
2022/04/26 06:29:18;;;;;;;20.13;14.70;;;;;;;;;;5046032;28;20445;-53
2022/04/26 06:34:39;;;;;;;16.17;11.40;;;;;;;;;;5008152;28;20564;-52
2022/04/26 06:37:05;;;;;;;15.93;12.17;;;;;;;;;;5050630;28;20501;-53
2022/04/26 06:39:31;;;;;;;14.80;10.90;;;;;;;;;;5058829;28;20883;-53
2022/04/26 06:42:30;;;;;;;14.57;11.03;;;;;;;;;;5061035;28;20683;-53
2022/04/26 06:45:01;;;;;;;14.97;11.10;;;;;;;;;;5058757;28;20433;-52
2022/04/26 06:47:28;;;;;;;15.93;12.17;;;;;;;;;;5034105;28;20456;-53
2022/04/26 06:52:58;;;;;;;14.03;11.90;;;;;;;;;;5035269;28;20446;-54
2022/04/26 06:55:24;;;;;;;16.17;13.00;;;;;;;;;;5055820;28;20456;-53
2022/04/26 06:57:50;;;;;;;15.97;11.50;;;;;;;;;;5039674;28;20417;-52
2022/04/26 07:00:17;;;;;;;14.93;11.77;;;;;;;;;;5055652;28;20818;-54
2022/04/26 07:02:45;;;;;;;14.17;10.73;;;;;;;;;;5030951;28;20442;-52
2022/04/26 07:05:12;;;;;;;15.43;12.30;;;;;;;;;;5039952;28;20448;-51
2022/04/26 07:07:38;;;;;;;11.17;8.53;;;;;;;;;;5017794;28;20553;-54
2022/04/26 07:10:05;;;;;;;11.33;9.43;;;;;;;;;;5051434;28;20876;-53
2022/04/26 07:12:32;;;;;;;9.60;8.60;;;;;;;;;;5050733;28;20486;-51
2022/04/26 07:14:58;;;;;;;10.30;9.17;;;;;;;;;;5057115;28;20429;-54
2022/04/26 07:17:24;;;;;;;11.30;9.00;;;;;;;;;;5039304;28;20441;-53
2022/04/26 07:19:50;;;;;;;10.30;7.90;;;;;;;;;;5049118;28;20481;-53
2022/04/26 07:22:17;;;;;;;9.93;8.33;;;;;;;;;;5034071;28;20556;-52
2022/04/26 07:24:44;;;;;;;10.93;7.40;;;;;;;;;;5053585;28;20430;-53
2022/04/26 07:27:10;;;;;;;10.43;8.80;;;;;;;;;;5037255;28;20510;-53
2022/04/26 07:29:37;;;;;;;6.57;5.87;;;;;;;;;;5050885;28;20832;-52
2022/04/26 07:32:04;;;;;;;8.03;7.00;;;;;;;;;;5038756;28;20508;-54
2022/04/26 07:34:30;;;;;;;8.80;7.53;;;;;;;;;;5056394;28;20448;-51
2022/04/26 07:37:20;;;;;;;8.60;7.07;;;;;;;;;;5028897;28;20433;-50
2022/04/26 07:39:46;;;;;;;9.07;8.17;;;;;;;;;;5052487;28;21302;-54
2022/04/26 07:42:12;;;;;;;8.80;7.87;;;;;;;;;;5033725;28;20475;-52
2022/04/26 07:44:40;;;;;;;10.20;9.10;;;;;;;;;;5056040;28;20805;-52
2022/04/26 07:47:06;;;;;;;14.57;8.23;;;;;;;;;;5052916;28;20578;-52
2022/04/26 07:49:32;;;;;;;9.30;7.83;;;;;;;;;;5053059;28;20492;-50
2022/04/26 07:52:17;;;;;;;10.00;9.00;;;;;;;;;;5047267;28;20466;-54
2022/04/26 07:54:43;;;;;;;8.90;8.00;;;;;;;;;;5058512;28;20881;-54
2022/04/26 07:57:12;;;;;;;8.93;7.53;;;;;;;;;;5033308;28;20666;-53
2022/04/26 07:59:38;;;;;;;8.30;7.10;;;;;;;;;;5057012;28;20533;-53
2022/04/26 08:02:08;;;;;;;8.13;7.30;;;;;;;;;;5039472;28;20441;-53
2022/04/26 08:04:34;;;;;;;8.10;7.33;;;;;;;;;;5057435;28;20453;-53
2022/04/26 08:07:00;;;;;;;11.13;7.50;;;;;;;;;;5045618;28;20435;-53
2022/04/26 08:09:29;;;;;;;10.37;7.70;;;;;;;;;;5052905;28;20824;-53
2022/04/26 08:12:27;;;;;;;9.70;7.97;;;;;;;;;;5042452;28;20468;-53
2022/04/26 08:14:57;;;;;;;10.30;8.53;;;;;;;;;;5054927;28;20506;-51
2022/04/26 08:17:24;;;;;;;8.43;7.63;;;;;;;;;;5050547;28;20433;-52
2022/04/26 08:19:50;;;;;;;8.13;7.10;;;;;;;;;;5053420;28;20677;-52
2022/04/26 08:22:16;;;;;;;6.77;6.10;;;;;;;;;;5048263;28;20860;-51
2022/04/26 08:27:28;;;;;;;8.10;7.27;;;;;;;;;;5036085;28;20228;-50
2022/04/26 08:29:58;;;;;;;8.50;7.60;;;;;;;;;;5056062;28;20429;-55
2022/04/26 08:32:26;;;;;;;11.70;7.10;;;;;;;;;;5035927;28;20441;-52
2022/04/26 08:35:03;;;;;;;9.10;7.10;;;;;;;;;;5038232;28;20910;-52
2022/04/26 08:37:29;;;;;;;10.27;9.13;;;;;;;;;;5044006;28;20433;-52
2022/04/26 08:39:56;;;;;;;7.90;6.70;;;;;;;;;;5035028;28;20533;-54
2022/04/26 08:42:35;;;;;;;8.90;7.60;;;;;;;;;;5041844;28;20434;-52
2022/04/26 08:45:32;;;;;;;8.23;7.30;;;;;;;;;;5050066;28;20460;-54
2022/04/26 08:51:02;;;;;;;8.43;7.40;;;;;;;;;;5028378;28;21075;-53
2022/04/26 08:53:37;;;;;;;8.77;7.77;;;;;;;;;;5050845;28;20438;-52
2022/04/26 08:56:06;;;;;;;11.60;6.90;;;;;;;;;;5036195;28;20437;-51
2022/04/26 08:58:32;;;;;;;19.00;7.83;;;;;;;;;;5054370;28;20489;-52
2022/04/26 09:01:05;;;;;;;8.87;7.00;;;;;;;;;;5033530;28;20441;-53
2022/04/26 09:03:31;;;;;;;7.70;7.00;;;;;;;;;;5047662;28;20437;-52
2022/04/26 09:06:07;;;;;;;6.50;5.60;;;;;;;;;;5026997;28;20727;-52
2022/04/26 09:08:34;;;;;;;8.10;6.60;;;;;;;;;;5054264;28;20449;-51
2022/04/26 09:11:01;;;;;;;6.90;6.20;;;;;;;;;;5035533;28;20445;-51
2022/04/26 09:13:27;;;;;;;6.47;5.87;;;;;;;;;;5045575;28;20442;-53
2022/04/26 09:15:56;;;;;;;11.70;6.93;;;;;;;;;;5047484;28;21012;-53
2022/04/26 09:18:56;;;;;;;7.80;7.00;;;;;;;;;;5048544;28;20465;-51
2022/04/26 09:21:27;;;;;;;6.83;6.03;;;;;;;;;;5034595;28;20473;-53
2022/04/26 09:23:53;;;;;;;7.50;6.13;;;;;;;;;;5049714;28;20438;-52
2022/04/26 09:26:22;;;;;;;7.07;6.23;;;;;;;;;;5028769;28;20458;-55
2022/04/26 09:28:49;;;;;;;8.07;7.27;;;;;;;;;;5047204;28;20999;-51
2022/04/26 09:31:30;;;;;;;7.50;5.83;;;;;;;;;;5054960;28;20532;-52
2022/04/26 09:34:11;;;;;;;8.40;6.10;;;;;;;;;;5050668;28;20440;-58
2022/04/26 09:37:14;;;;;;;7.00;5.90;;;;;;;;;;5048354;28;21012;-52
2022/04/26 09:40:01;;;;;;;6.47;5.87;;;;;;;;;;5040813;28;20482;-51
2022/04/26 09:42:31;;;;;;;11.80;5.73;;;;;;;;;;5047836;28;20555;-53
2022/04/26 09:45:04;;;;;;;6.50;5.40;;;;;;;;;;5052306;28;20523;-51
2022/04/26 09:47:37;;;;;;;7.60;5.77;;;;;;;;;;5033369;28;20446;-52
2022/04/26 09:50:10;;;;;;;6.57;4.80;;;;;;;;;;5044041;28;20552;-53
2022/04/26 09:53:02;;;;;;;9.77;6.17;;;;;;;;;;5035422;28;20864;-53
2022/04/26 09:55:28;;;;;;;7.83;5.57;;;;;;;;;;5044485;28;20447;-54
2022/04/26 09:57:54;;;;;;;6.50;5.90;;;;;;;;;;5047930;28;20428;-52
2022/04/26 10:00:21;;;;;;;5.97;5.37;;;;;;;;;;5053710;28;20434;-54
2022/04/26 10:02:53;;;;;;;5.33;4.83;;;;;;;;;;5048097;28;20461;-53
2022/04/26 10:05:22;;;;;;;8.17;5.33;;;;;;;;;;5054481;28;20438;-53
2022/04/26 10:07:48;;;;;;;6.23;5.23;;;;;;;;;;5040858;28;20445;-53
2022/04/26 10:10:15;;;;;;;6.60;5.30;;;;;;;;;;5051913;28;20472;-54
2022/04/26 10:12:41;;;;;;;5.43;4.43;;;;;;;;;;5044275;28;20545;-54
2022/04/26 10:15:10;;;;;;;4.93;4.53;;;;;;;;;;5061081;28;20520;-54
2022/04/26 10:17:36;;;;;;;5.20;4.70;;;;;;;;;;5054798;28;20469;-53
2022/04/26 10:20:06;;;;;;;6.40;5.17;;;;;;;;;;5058088;28;20515;-52
2022/04/26 10:22:50;;;;;;;6.83;5.97;;;;;;;;;;5045661;28;21089;-52
2022/04/26 10:25:21;;;;;;;5.17;4.53;;;;;;;;;;5056437;28;20688;-59
2022/04/26 10:27:47;;;;;;;7.17;4.30;;;;;;;;;;5011508;28;20443;-50
2022/04/26 10:30:14;;;;;;;7.30;4.40;;;;;;;;;;5052732;28;20526;-57
2022/04/26 10:32:42;;;;;;;9.43;5.23;;;;;;;;;;5020900;28;20475;-52
2022/04/26 10:35:24;;;;;;;5.80;5.03;;;;;;;;;;5055158;28;21052;-54
2022/04/26 10:38:12;;;;;;;7.03;5.27;;;;;;;;;;5052191;28;20418;-51
2022/04/26 10:40:57;;;;;;;6.83;4.40;;;;;;;;;;5033771;28;20518;-52
2022/04/26 10:43:24;;;;;;;7.13;4.60;;;;;;;;;;5043902;28;21073;-52
2022/04/26 10:46:15;;;;;;;6.50;4.83;;;;;;;;;;5070745;28;20448;-51
2022/04/26 10:48:43;;;;;;;5.07;4.60;;;;;;;;;;5054216;28;20804;-50
2022/04/26 10:51:35;;;;;;;7.60;4.43;;;;;;;;;;5028727;28;20456;-52
2022/04/26 10:54:02;;;;;;;4.70;4.30;;;;;;;;;;5057161;28;20441;-52
2022/04/26 10:56:29;;;;;;;3.80;3.33;;;;;;;;;;5054451;28;20439;-54
2022/04/26 11:01:59;;;;;;;3.80;3.50;;;;;;;;;;5021280;28;20448;-51
2022/04/26 11:04:33;;;;;;;5.50;5.00;;;;;;;;;;5037951;28;20437;-56
2022/04/26 11:06:59;;;;;;;4.73;4.27;;;;;;;;;;5053560;28;21222;-52
2022/04/26 11:09:25;;;;;;;5.70;3.30;;;;;;;;;;5050294;28;20676;-50
2022/04/26 11:11:51;;;;;;;3.90;2.73;;;;;;;;;;5050905;28;20976;-52
2022/04/26 11:14:58;;;;;;;4.63;3.10;;;;;;;;;;5052895;28;21306;-52
2022/04/26 11:17:31;;;;;;;6.10;5.50;;;;;;;;;;5055250;28;20426;-51
2022/04/26 11:19:58;;;;;;;7.60;6.70;;;;;;;;;;5032567;28;20831;-50
2022/04/26 11:22:25;;;;;;;6.70;6.10;;;;;;;;;;5049504;28;20445;-52
2022/04/26 11:28:02;;;;;;;10.77;7.00;;;;;;;;;;5055729;28;20510;-52
2022/04/26 11:30:29;;;;;;;7.17;6.10;;;;;;;;;;5032579;28;20958;-52
2022/04/26 11:32:56;;;;;;;7.57;6.77;;;;;;;;;;5055105;28;20422;-53
2022/04/26 11:35:22;;;;;;;6.47;5.87;;;;;;;;;;5024290;28;21780;-53
2022/04/26 11:37:49;;;;;;;7.77;6.97;;;;;;;;;;5054195;28;20487;-53
2022/04/26 11:40:28;;;;;;;8.17;6.83;;;;;;;;;;5043715;28;20474;-53
2022/04/26 11:42:56;;;;;;;8.87;7.60;;;;;;;;;;5055753;28;20456;-52
2022/04/26 11:45:22;;;;;;;8.20;6.77;;;;;;;;;;5032445;28;20449;-51
2022/04/26 11:47:49;;;;;;;8.07;7.07;;;;;;;;;;5054185;28;21697;-52
2022/04/26 11:50:20;;;;;;;8.63;6.47;;;;;;;;;;5031417;28;20972;-51
2022/04/26 11:52:46;;;;;;;8.00;6.87;;;;;;;;;;5051916;28;20506;-52
2022/04/26 11:55:41;;;;;;;7.57;5.70;;;;;;;;;;5032367;28;20977;-51
2022/04/26 11:58:20;;;;;;;5.97;5.07;;;;;;;;;;5050469;28;20697;-52
2022/04/26 12:00:53;;;;;;;6.07;5.10;;;;;;;;;;5054324;28;20516;-51
2022/04/26 12:03:19;;;;;;;5.10;4.50;;;;;;;;;;5052222;28;20442;-51
2022/04/26 12:05:45;;;;;;;6.30;4.50;;;;;;;;;;5020858;28;20488;-52
2022/04/26 12:08:12;;;;;;;6.23;4.93;;;;;;;;;;5054809;28;20922;-52
2022/04/26 12:10:41;;;;;;;8.63;5.67;;;;;;;;;;5043274;28;20467;-51
2022/04/26 12:13:16;;;;;;;6.30;5.50;;;;;;;;;;5056380;28;20422;-52
2022/04/26 12:15:43;;;;;;;7.07;6.00;;;;;;;;;;5044332;28;20558;-52
2022/04/26 12:18:13;;;;;;;6.53;4.90;;;;;;;;;;5055570;28;20978;-52
2022/04/26 12:20:55;;;;;;;5.00;4.17;;;;;;;;;;5030078;28;20448;-52
2022/04/26 12:23:22;;;;;;;5.70;4.57;;;;;;;;;;5055209;28;20999;-51
2022/04/26 12:26:09;;;;;;;6.90;5.60;;;;;;;;;;5047532;28;20437;-53
2022/04/26 12:28:45;;;;;;;6.03;5.10;;;;;;;;;;5057194;28;20496;-51
2022/04/26 12:31:30;;;;;;;6.47;5.37;;;;;;;;;;5048766;28;20514;-52
2022/04/26 12:37:21;;;;;;;6.53;5.33;;;;;;;;;;5028384;28;20493;-53
2022/04/26 12:40:00;;;;;;;5.50;4.00;;;;;;;;;;5028624;28;20896;-54
2022/04/26 12:42:39;;;;;;;6.90;3.80;;;;;;;;;;5048930;28;20452;-52
2022/04/26 12:45:07;;;;;;;4.97;3.80;;;;;;;;;;5032306;28;20457;-51
2022/04/26 12:50:46;;;;;;;4.10;3.17;;;;;;;;;;5031714;28;20455;-53
2022/04/26 12:53:50;;;;;;;5.53;3.23;;;;;;;;;;5035537;28;20779;-53
2022/04/26 12:56:56;;;;;;;4.83;3.50;;;;;;;;;;5035826;28;20429;-52
2022/04/26 12:59:44;;;;;;;4.40;3.83;;;;;;;;;;5041462;28;20511;-52
2022/04/26 13:02:20;;;;;;;3.90;3.27;;;;;;;;;;5041789;28;20511;-52
2022/04/26 13:04:59;;;;;;;4.47;3.77;;;;;;;;;;5034358;28;20539;-52
2022/04/26 13:07:25;;;;;;;14.93;12.50;;;;;;;;;;5045715;28;21024;-58
2022/04/26 13:10:05;;;;;;;4.93;3.60;;;;;;;;;;5019544;28;20580;-51
2022/04/26 13:12:34;;;;;;;6.23;2.80;;;;;;;;;;5050199;28;20515;-54
2022/04/26 13:15:08;;;;;;;2.60;2.23;;;;;;;;;;5023696;28;20472;-51
2022/04/26 13:17:40;;;;;;;4.30;2.80;;;;;;;;;;5019932;28;20577;-53
2022/04/26 13:20:07;;;;;;;3.23;2.70;;;;;;;;;;5044400;28;20489;-54
2022/04/26 13:22:35;;;;;;;2.60;2.30;;;;;;;;;;5028102;28;20444;-50
2022/04/26 13:25:32;;;;;;;2.83;2.40;;;;;;;;;;5051256;28;20442;-53
2022/04/26 13:28:09;;;;;;;4.33;2.83;;;;;;;;;;5058675;28;20441;-53
2022/04/26 13:31:00;;;;;;;3.80;2.97;;;;;;;;;;5035257;28;21133;-52
2022/04/26 13:33:27;;;;;;;2.90;2.53;;;;;;;;;;5051080;28;20443;-52
2022/04/26 13:35:55;;;;;;;3.93;2.77;;;;;;;;;;5055878;28;20429;-52
2022/04/26 13:38:42;;;;;;;3.43;2.37;;;;;;;;;;5051286;28;20480;-52
2022/04/26 13:41:11;;;;;;;2.23;2.03;;;;;;;;;;5057667;28;20429;-51
2022/04/26 13:43:54;;;;;;;2.60;1.90;;;;;;;;;;5029410;28;21386;-53
2022/04/26 13:46:23;;;;;;;2.40;2.20;;;;;;;;;;5052276;28;20917;-52
2022/04/26 13:49:07;;;;;;;3.47;2.93;;;;;;;;;;5048110;28;20450;-53
2022/04/26 13:51:36;;;;;;;3.10;2.43;;;;;;;;;;5047354;28;20437;-53
2022/04/26 13:54:04;;;;;;;2.57;2.17;;;;;;;;;;5064926;28;21013;-52
2022/04/26 13:56:30;;;;;;;2.53;1.90;;;;;;;;;;5048456;28;20451;-52
2022/04/26 13:58:56;;;;;;;2.97;2.63;;;;;;;;;;5030778;28;20475;-53
2022/04/26 14:01:25;;;;;;;3.07;2.77;;;;;;;;;;5041257;28;20437;-52
2022/04/26 14:03:51;;;;;;;2.63;1.97;;;;;;;;;;5027011;28;20915;-55
2022/04/26 14:06:21;;;;;;;5.63;2.67;;;;;;;;;;5054782;28;20449;-53
2022/04/26 14:08:51;;;;;;;4.93;3.40;;;;;;;;;;5031117;28;20815;-54
2022/04/26 14:11:32;;;;;;;3.03;2.17;;;;;;;;;;5018048;28;20489;-53
2022/04/26 14:22:34;;;;;;;4.57;2.30;;;;;;;;;;5060360;28;20495;-50
2022/04/26 14:25:02;;;;;;;3.30;2.90;;;;;;;;;;5058099;28;20777;-52
2022/04/26 14:27:29;;;;;;;4.03;3.40;;;;;;;;;;5060848;28;20436;-54
2022/04/26 14:30:16;;;;;;;3.90;3.50;;;;;;;;;;5038831;28;20445;-54
2022/04/26 14:32:48;;;;;;;4.70;3.37;;;;;;;;;;5059708;28;20511;-53
2022/04/26 14:35:15;;;;;;;3.90;3.50;;;;;;;;;;5036295;28;20449;-52
2022/04/26 14:37:41;;;;;;;4.60;3.90;;;;;;;;;;5060686;28;20585;-52
2022/04/26 14:40:26;;;;;;;4.50;3.40;;;;;;;;;;5036501;28;20508;-53
2022/04/26 14:42:54;;;;;;;3.87;3.17;;;;;;;;;;5060390;28;20670;-53
2022/04/26 14:45:24;;;;;;;2.80;2.50;;;;;;;;;;5021996;28;20796;-53
2022/04/26 14:47:51;;;;;;;2.50;2.30;;;;;;;;;;5061321;28;20425;-53
2022/04/26 14:50:18;;;;;;;3.23;2.93;;;;;;;;;;5040461;28;20425;-52
2022/04/26 14:52:44;;;;;;;3.40;3.10;;;;;;;;;;5060625;28;20461;-52
2022/04/26 14:55:10;;;;;;;3.07;2.67;;;;;;;;;;5043662;28;20844;-52
2022/04/26 14:57:36;;;;;;;3.23;2.93;;;;;;;;;;5060784;28;20505;-53
2022/04/26 15:00:07;;;;;;;3.03;2.73;;;;;;;;;;5043013;28;20495;-53
2022/04/26 15:02:39;;;;;;;7.17;5.17;;;;;;;;;;5059756;28;20463;-54
2022/04/26 15:05:09;;;;;;;2.87;2.57;;;;;;;;;;5037648;28;20461;-53
2022/04/26 15:10:27;;;;;;;4.50;3.57;;;;;;;;;;5033096;28;20461;-53
2022/04/26 15:18:25;;;;;;;2.60;2.40;;;;;;;;;;5057360;28;20467;-54
2022/04/26 15:20:56;;;;;;;3.73;3.00;;;;;;;;;;5016767;28;20455;-52
2022/04/26 15:23:26;;;;;;;4.40;3.00;;;;;;;;;;5055550;28;20579;-52
2022/04/26 15:25:53;;;;;;;3.50;3.00;;;;;;;;;;5040465;28;20425;-53
2022/04/26 15:28:19;;;;;;;7.40;4.10;;;;;;;;;;5060070;28;20445;-52
2022/04/26 15:30:45;;;;;;;4.00;3.47;;;;;;;;;;5035774;28;20551;-52
2022/04/26 15:33:12;;;;;;;3.73;2.90;;;;;;;;;;5058107;28;20437;-52
2022/04/26 15:35:42;;;;;;;3.40;3.00;;;;;;;;;;5015404;28;20437;-51
2022/04/26 15:38:12;;;;;;;6.20;3.70;;;;;;;;;;5045587;28;20743;-52
2022/04/26 15:40:51;;;;;;;3.97;3.57;;;;;;;;;;5056459;28;20490;-54
2022/04/26 15:43:17;;;;;;;7.80;3.90;;;;;;;;;;5054794;28;20462;-53
2022/04/26 15:46:19;;;;;;;8.97;7.37;;;;;;;;;;5063015;28;20172;-53
2022/04/26 15:48:50;;;;;;;6.60;3.77;;;;;;;;;;5060880;28;20441;-53
2022/04/26 15:51:18;;;;;;;4.50;3.67;;;;;;;;;;5031215;28;20517;-54
2022/04/26 15:53:50;;;;;;;6.90;2.97;;;;;;;;;;5055803;28;20444;-53
2022/04/26 15:56:29;;;;;;;4.40;3.37;;;;;;;;;;5057205;28;20538;-53
2022/04/26 15:58:56;;;;;;;4.07;3.60;;;;;;;;;;5051797;28;20473;-54
2022/04/26 16:01:46;;;;;;;3.47;3.07;;;;;;;;;;5043368;28;20495;-54
2022/04/26 16:04:20;;;;;;;4.03;3.23;;;;;;;;;;5053518;28;20453;-53
2022/04/26 16:06:59;;;;;;;4.40;4.00;;;;;;;;;;5045319;28;23779;-53
2022/04/26 16:20:55;;;;;;;3.90;2.70;;;;;;;;;;5053394;28;20499;-55
2022/04/26 16:23:41;;;;;;;3.50;2.90;;;;;;;;;;5012500;28;20522;-53
2022/04/26 16:26:11;;;;;;;5.20;2.70;;;;;;;;;;5049558;28;20476;-53
2022/04/26 16:28:40;;;;;;;3.80;2.83;;;;;;;;;;5050998;28;20451;-53
2022/04/26 16:31:34;;;;;;;3.40;3.10;;;;;;;;;;5045243;28;20513;-57
2022/04/26 16:34:11;;;;;;;4.70;3.40;;;;;;;;;;5052641;28;20863;-53
2022/04/26 16:36:37;;;;;;;4.07;3.33;;;;;;;;;;5031016;28;20921;-53
2022/04/26 16:39:03;;;;;;;4.23;3.40;;;;;;;;;;5053226;28;20540;-55
2022/04/26 16:41:30;;;;;;;2.93;2.60;;;;;;;;;;5046218;28;20441;-53
2022/04/26 16:43:59;;;;;;;3.90;3.37;;;;;;;;;;5053493;28;20857;-53
2022/04/26 16:46:30;;;;;;;3.47;3.00;;;;;;;;;;5043012;28;20956;-53
2022/04/26 16:48:56;;;;;;;12.03;3.87;;;;;;;;;;5054841;28;20444;-56
2022/04/26 16:51:29;;;;;;;3.63;3.30;;;;;;;;;;5066929;28;20438;-53
2022/04/26 16:54:03;;;;;;;3.33;3.03;;;;;;;;;;5036033;28;21079;-53
2022/04/26 16:57:01;;;;;;;2.47;2.27;;;;;;;;;;5049088;28;21006;-52
2022/04/26 16:59:45;;;;;;;2.43;2.23;;;;;;;;;;5055651;28;20499;-54
2022/04/26 17:02:15;;;;;;;3.03;2.70;;;;;;;;;;5040969;28;20426;-53
2022/04/26 17:04:41;;;;;;;2.83;2.43;;;;;;;;;;5051607;28;20937;-53
2022/04/26 17:07:16;;;;;;;6.00;2.97;;;;;;;;;;5030283;28;20488;-55
2022/04/26 17:09:50;;;;;;;3.00;2.47;;;;;;;;;;5044869;28;20498;-54
2022/04/26 17:12:30;;;;;;;4.40;2.47;;;;;;;;;;5048537;28;20507;-54
2022/04/26 17:15:19;;;;;;;2.37;2.00;;;;;;;;;;5048119;28;20493;-51
2022/04/26 17:17:59;;;;;;;3.30;2.37;;;;;;;;;;5045554;28;20555;-52
2022/04/26 17:20:44;;;;;;;2.83;2.50;;;;;;;;;;5045822;28;20485;-51
2022/04/26 17:23:15;;;;;;;2.80;2.47;;;;;;;;;;5034610;28;20454;-51
2022/04/26 17:26:01;;;;;;;3.20;2.87;;;;;;;;;;5047631;28;20498;-54
2022/04/26 17:28:28;;;;;;;3.07;2.10;;;;;;;;;;5050363;28;20440;-53
2022/04/26 17:30:59;;;;;;;2.30;1.90;;;;;;;;;;5050648;28;20445;-52
2022/04/26 17:33:27;;;;;;;3.47;2.43;;;;;;;;;;5048278;28;20445;-53
2022/04/26 17:35:58;;;;;;;2.97;2.50;;;;;;;;;;5060931;28;20965;-53
2022/04/26 17:38:24;;;;;;;3.87;2.27;;;;;;;;;;5040329;28;20433;-51
2022/04/26 17:40:50;;;;;;;3.00;2.70;;;;;;;;;;5026601;28;20901;-54
2022/04/26 17:43:17;;;;;;;3.03;2.40;;;;;;;;;;5055174;28;20911;-53
2022/04/26 17:45:47;;;;;;;2.97;2.60;;;;;;;;;;5049421;28;20437;-52
2022/04/26 17:48:14;;;;;;;3.77;2.83;;;;;;;;;;5039870;28;20444;-51
2022/04/26 17:50:43;;;;;;;2.93;2.63;;;;;;;;;;5024819;28;20859;-52
2022/04/26 17:58:39;;;;;;;5.00;3.03;;;;;;;;;;5059985;28;20611;-53
2022/04/26 18:01:05;;;;;;;3.00;2.70;;;;;;;;;;5048272;28;20440;-53
2022/04/26 18:03:31;;;;;;;3.83;3.10;;;;;;;;;;5048668;28;20537;-53
2022/04/26 18:05:57;;;;;;;3.43;2.97;;;;;;;;;;5028267;28;20496;-52
2022/04/26 18:08:25;;;;;;;4.13;3.03;;;;;;;;;;5051705;28;20470;-52
2022/04/26 18:10:52;;;;;;;3.30;2.87;;;;;;;;;;5031840;28;20460;-53
2022/04/26 18:13:18;;;;;;;3.67;2.50;;;;;;;;;;5054959;28;20491;-53
2022/04/26 18:15:44;;;;;;;2.90;2.60;;;;;;;;;;5031409;28;20441;-52
2022/04/26 18:18:19;;;;;;;3.00;2.60;;;;;;;;;;5051381;28;21013;-53
2022/04/26 18:20:47;;;;;;;2.87;2.47;;;;;;;;;;5036926;28;20452;-52
2022/04/26 18:23:16;;;;;;;3.30;3.00;;;;;;;;;;5050931;28;20452;-53
2022/04/26 18:28:26;;;;;;;3.70;2.90;;;;;;;;;;5055141;28;20460;-53
2022/04/26 18:30:53;;;;;;;3.47;2.97;;;;;;;;;;5055921;28;20436;-53
2022/04/26 18:33:19;;;;;;;3.87;2.93;;;;;;;;;;5051851;28;20428;-53
2022/04/26 18:35:53;;;;;;;2.47;2.27;;;;;;;;;;5059344;28;20440;-53
2022/04/26 18:38:21;;;;;;;3.20;2.53;;;;;;;;;;5053416;28;20425;-53
2022/04/26 18:40:47;;;;;;;2.80;2.50;;;;;;;;;;5035405;28;20780;-52
2022/04/26 18:43:14;;;;;;;3.10;2.60;;;;;;;;;;5063337;28;20435;-54
2022/04/26 18:45:40;;;;;;;3.23;2.90;;;;;;;;;;5032601;28;20500;-55
2022/04/26 18:48:07;;;;;;;3.20;2.60;;;;;;;;;;5055950;28;20446;-52
2022/04/26 18:50:34;;;;;;;8.83;3.10;;;;;;;;;;5032871;28;20485;-52
2022/04/26 18:53:00;;;;;;;3.53;1.90;;;;;;;;;;5061821;28;20985;-53
2022/04/26 18:55:31;;;;;;;2.30;2.10;;;;;;;;;;5040818;28;21410;-53
2022/04/26 18:57:59;;;;;;;2.60;2.00;;;;;;;;;;5064568;28;20430;-53
2022/04/26 19:00:33;;;;;;;2.97;2.10;;;;;;;;;;5029212;28;20482;-52
2022/04/26 19:03:03;;;;;;;3.77;2.53;;;;;;;;;;5061651;28;20433;-52
2022/04/26 19:05:30;;;;;;;2.90;2.57;;;;;;;;;;5045182;28;20448;-52
2022/04/26 19:08:10;;;;;;;3.60;3.23;;;;;;;;;;5052437;28;20473;-54
2022/04/26 19:13:26;;;;;;;4.80;3.20;;;;;;;;;;5050519;28;22082;-52
2022/04/26 19:15:55;;;;;;;5.40;3.00;;;;;;;;;;5060585;28;20528;-54
2022/04/26 19:18:51;;;;;;;4.57;2.60;;;;;;;;;;5048527;28;20506;-52
2022/04/26 19:21:18;;;;;;;3.40;2.80;;;;;;;;;;5070575;28;20565;-54
2022/04/26 19:23:49;;;;;;;2.77;2.50;;;;;;;;;;5034512;28;21840;-53
2022/04/26 19:26:23;;;;;;;4.40;2.80;;;;;;;;;;5057177;28;20493;-54
2022/04/26 19:28:57;;;;;;;6.30;3.37;;;;;;;;;;5055713;28;20446;-53
2022/04/26 19:31:27;;;;;;;3.20;2.40;;;;;;;;;;5044640;28;21177;-53
2022/04/26 19:33:53;;;;;;;6.20;3.37;;;;;;;;;;5033919;28;20433;-52
2022/04/26 19:36:21;;;;;;;3.40;2.50;;;;;;;;;;5050809;28;20425;-52
2022/04/26 19:38:55;;;;;;;5.60;3.37;;;;;;;;;;5047000;28;22255;-53
2022/04/26 19:41:21;;;;;;;4.17;3.00;;;;;;;;;;5044539;28;20490;-53
2022/04/26 19:43:48;;;;;;;4.70;2.90;;;;;;;;;;5033628;28;20450;-53
2022/04/26 19:46:14;;;;;;;2.40;2.10;;;;;;;;;;5053405;28;21315;-54
2022/04/26 19:48:41;;;;;;;4.80;3.60;;;;;;;;;;5035296;28;20448;-53
2022/04/26 19:51:25;;;;;;;3.70;2.97;;;;;;;;;;5058926;28;20433;-51